sensor_id;sensor_type;location;lat;lon;timestamp;temperature;humidity
18932;DHT22;9598;50.954;3.112;2023-12-07T00:01:47;3.80;99.90
18932;DHT22;9598;50.954;3.112;2023-12-07T00:06:49;3.80;99.90
18932;DHT22;9598;50.954;3.112;2023-12-07T00:11:52;3.80;99.90
18932;DHT22;9598;50.954;3.112;2023-12-07T00:16:54;3.80;99.90
18932;DHT22;9598;50.954;3.112;2023-12-07T00:21:57;3.80;99.90
18932;DHT22;9598;50.954;3.112;2023-12-07T00:27:01;3.80;99.90
18932;DHT22;9598;50.954;3.112;2023-12-07T00:32:04;3.80;99.90
18932;DHT22;9598;50.954;3.112;2023-12-07T00:37:06;3.90;99.90
18932;DHT22;9598;50.954;3.112;2023-12-07T00:42:09;3.90;99.90
18932;DHT22;9598;50.954;3.112;2023-12-07T00:47:11;3.90;99.90
18932;DHT22;9598;50.954;3.112;2023-12-07T00:52:14;4.00;99.90
18932;DHT22;9598;50.954;3.112;2023-12-07T00:57:17;4.00;99.90
18932;DHT22;9598;50.954;3.112;2023-12-07T01:02:19;4.00;99.90
18932;DHT22;9598;50.954;3.112;2023-12-07T01:07:22;3.90;99.90
18932;DHT22;9598;50.954;3.112;2023-12-07T01:12:25;3.90;99.90
18932;DHT22;9598;50.954;3.112;2023-12-07T01:17:28;4.00;99.90
18932;DHT22;9598;50.954;3.112;2023-12-07T01:22:30;4.00;99.90
18932;DHT22;9598;50.954;3.112;2023-12-07T01:27:33;4.00;99.90
18932;DHT22;9598;50.954;3.112;2023-12-07T01:32:35;4.00;99.90
18932;DHT22;9598;50.954;3.112;2023-12-07T01:37:37;4.00;99.90
18932;DHT22;9598;50.954;3.112;2023-12-07T01:42:46;4.00;99.90
18932;DHT22;9598;50.954;3.112;2023-12-07T01:47:51;4.10;99.90
18932;DHT22;9598;50.954;3.112;2023-12-07T01:52:59;4.10;99.90
18932;DHT22;9598;50.954;3.112;2023-12-07T01:58:03;4.10;99.90
18932;DHT22;9598;50.954;3.112;2023-12-07T02:03:05;4.10;99.90
18932;DHT22;9598;50.954;3.112;2023-12-07T02:08:07;4.20;99.90
18932;DHT22;9598;50.954;3.112;2023-12-07T02:13:11;4.20;99.90
18932;DHT22;9598;50.954;3.112;2023-12-07T02:18:16;4.30;99.90
18932;DHT22;9598;50.954;3.112;2023-12-07T02:23:21;4.30;99.90
18932;DHT22;9598;50.954;3.112;2023-12-07T02:28:26;4.30;99.90
18932;DHT22;9598;50.954;3.112;2023-12-07T02:33:28;4.30;99.90
18932;DHT22;9598;50.954;3.112;2023-12-07T02:38:30;4.40;99.90
18932;DHT22;9598;50.954;3.112;2023-12-07T02:43:34;4.40;99.90
18932;DHT22;9598;50.954;3.112;2023-12-07T02:48:36;4.40;99.90
18932;DHT22;9598;50.954;3.112;2023-12-07T02:53:38;4.50;99.90
18932;DHT22;9598;50.954;3.112;2023-12-07T02:58:41;4.50;99.90
18932;DHT22;9598;50.954;3.112;2023-12-07T03:03:43;4.50;99.90
18932;DHT22;9598;50.954;3.112;2023-12-07T03:08:45;4.50;99.90
18932;DHT22;9598;50.954;3.112;2023-12-07T03:13:49;4.50;99.90
18932;DHT22;9598;50.954;3.112;2023-12-07T03:18:51;4.60;99.90
18932;DHT22;9598;50.954;3.112;2023-12-07T03:23:53;4.70;99.90
18932;DHT22;9598;50.954;3.112;2023-12-07T03:28:56;4.70;99.90
18932;DHT22;9598;50.954;3.112;2023-12-07T03:33:59;4.70;99.90
18932;DHT22;9598;50.954;3.112;2023-12-07T03:39:01;4.70;99.90
18932;DHT22;9598;50.954;3.112;2023-12-07T03:44:07;4.70;99.90
18932;DHT22;9598;50.954;3.112;2023-12-07T03:49:09;4.70;99.90
18932;DHT22;9598;50.954;3.112;2023-12-07T03:54:11;4.70;99.90
18932;DHT22;9598;50.954;3.112;2023-12-07T03:59:14;4.70;99.90
18932;DHT22;9598;50.954;3.112;2023-12-07T04:04:16;4.80;99.90
18932;DHT22;9598;50.954;3.112;2023-12-07T04:09:19;4.80;99.90
18932;DHT22;9598;50.954;3.112;2023-12-07T04:14:23;4.80;99.90
18932;DHT22;9598;50.954;3.112;2023-12-07T04:19:25;4.80;99.90
18932;DHT22;9598;50.954;3.112;2023-12-07T04:24:27;4.80;99.90
18932;DHT22;9598;50.954;3.112;2023-12-07T04:29:31;4.80;99.90
18932;DHT22;9598;50.954;3.112;2023-12-07T04:34:33;4.70;99.90
18932;DHT22;9598;50.954;3.112;2023-12-07T04:39:36;4.80;99.90
18932;DHT22;9598;50.954;3.112;2023-12-07T04:44:39;4.80;99.90
18932;DHT22;9598;50.954;3.112;2023-12-07T04:49:41;4.80;99.90
18932;DHT22;9598;50.954;3.112;2023-12-07T04:54:43;4.80;99.90
18932;DHT22;9598;50.954;3.112;2023-12-07T04:59:47;4.80;99.90
18932;DHT22;9598;50.954;3.112;2023-12-07T05:04:49;4.80;99.90
18932;DHT22;9598;50.954;3.112;2023-12-07T05:09:51;4.90;99.90
18932;DHT22;9598;50.954;3.112;2023-12-07T05:14:54;4.90;99.90
18932;DHT22;9598;50.954;3.112;2023-12-07T05:19:56;4.90;99.90
18932;DHT22;9598;50.954;3.112;2023-12-07T05:24:58;4.90;99.90
18932;DHT22;9598;50.954;3.112;2023-12-07T05:30:02;4.90;99.90
18932;DHT22;9598;50.954;3.112;2023-12-07T05:35:05;4.90;99.90
18932;DHT22;9598;50.954;3.112;2023-12-07T05:40:09;5.00;99.90
18932;DHT22;9598;50.954;3.112;2023-12-07T05:45:14;4.90;99.90
18932;DHT22;9598;50.954;3.112;2023-12-07T05:50:16;5.00;99.90
18932;DHT22;9598;50.954;3.112;2023-12-07T05:55:18;5.00;99.90
18932;DHT22;9598;50.954;3.112;2023-12-07T06:00:22;5.00;99.90
18932;DHT22;9598;50.954;3.112;2023-12-07T06:05:24;5.00;99.90
18932;DHT22;9598;50.954;3.112;2023-12-07T06:10:26;5.00;99.90
18932;DHT22;9598;50.954;3.112;2023-12-07T06:15:30;5.00;99.90
18932;DHT22;9598;50.954;3.112;2023-12-07T06:20:32;5.10;99.90
18932;DHT22;9598;50.954;3.112;2023-12-07T06:25:35;5.00;99.90
18932;DHT22;9598;50.954;3.112;2023-12-07T06:30:39;5.10;99.90
18932;DHT22;9598;50.954;3.112;2023-12-07T06:35:41;5.00;99.90
18932;DHT22;9598;50.954;3.112;2023-12-07T06:40:43;5.00;99.90
18932;DHT22;9598;50.954;3.112;2023-12-07T06:45:46;5.00;99.90
18932;DHT22;9598;50.954;3.112;2023-12-07T06:50:48;5.10;99.90
18932;DHT22;9598;50.954;3.112;2023-12-07T06:55:51;5.00;99.90
18932;DHT22;9598;50.954;3.112;2023-12-07T07:00:54;5.00;99.90
18932;DHT22;9598;50.954;3.112;2023-12-07T07:05:56;5.10;99.90
18932;DHT22;9598;50.954;3.112;2023-12-07T07:11:00;5.10;99.90
18932;DHT22;9598;50.954;3.112;2023-12-07T07:16:03;5.10;99.90
18932;DHT22;9598;50.954;3.112;2023-12-07T07:21:06;5.10;99.90
18932;DHT22;9598;50.954;3.112;2023-12-07T07:26:08;5.10;99.90
18932;DHT22;9598;50.954;3.112;2023-12-07T07:31:12;5.10;99.90
18932;DHT22;9598;50.954;3.112;2023-12-07T07:36:14;5.20;99.90
18932;DHT22;9598;50.954;3.112;2023-12-07T07:41:16;5.20;99.90
18932;DHT22;9598;50.954;3.112;2023-12-07T07:46:19;5.20;99.90
18932;DHT22;9598;50.954;3.112;2023-12-07T07:51:22;5.20;99.90
18932;DHT22;9598;50.954;3.112;2023-12-07T07:56:24;5.20;99.90
18932;DHT22;9598;50.954;3.112;2023-12-07T08:01:28;5.30;99.90
18932;DHT22;9598;50.954;3.112;2023-12-07T08:06:30;5.20;99.90
18932;DHT22;9598;50.954;3.112;2023-12-07T08:11:32;5.30;99.90
18932;DHT22;9598;50.954;3.112;2023-12-07T08:16:35;5.30;99.90
18932;DHT22;9598;50.954;3.112;2023-12-07T08:21:37;5.30;99.90
18932;DHT22;9598;50.954;3.112;2023-12-07T08:26:40;5.30;99.90
18932;DHT22;9598;50.954;3.112;2023-12-07T08:31:43;5.40;99.90
18932;DHT22;9598;50.954;3.112;2023-12-07T08:36:45;5.40;99.90
18932;DHT22;9598;50.954;3.112;2023-12-07T08:41:47;5.40;99.90
18932;DHT22;9598;50.954;3.112;2023-12-07T08:46:51;5.40;99.90
18932;DHT22;9598;50.954;3.112;2023-12-07T08:51:53;5.40;99.90
18932;DHT22;9598;50.954;3.112;2023-12-07T08:56:55;5.50;99.90
18932;DHT22;9598;50.954;3.112;2023-12-07T09:01:58;5.50;99.90
18932;DHT22;9598;50.954;3.112;2023-12-07T09:07:00;5.50;99.90
18932;DHT22;9598;50.954;3.112;2023-12-07T09:12:03;5.50;99.90
18932;DHT22;9598;50.954;3.112;2023-12-07T09:17:07;5.50;99.90
18932;DHT22;9598;50.954;3.112;2023-12-07T09:22:09;5.50;99.90
18932;DHT22;9598;50.954;3.112;2023-12-07T09:27:13;5.60;99.90
18932;DHT22;9598;50.954;3.112;2023-12-07T09:32:17;5.50;99.90
18932;DHT22;9598;50.954;3.112;2023-12-07T09:37:22;5.60;99.90
18932;DHT22;9598;50.954;3.112;2023-12-07T09:42:24;5.60;99.90
18932;DHT22;9598;50.954;3.112;2023-12-07T09:47:28;5.60;99.90
18932;DHT22;9598;50.954;3.112;2023-12-07T09:52:32;5.60;99.90
18932;DHT22;9598;50.954;3.112;2023-12-07T09:57:35;5.70;99.90
18932;DHT22;9598;50.954;3.112;2023-12-07T10:02:40;5.70;99.90
18932;DHT22;9598;50.954;3.112;2023-12-07T10:07:44;5.70;99.90
18932;DHT22;9598;50.954;3.112;2023-12-07T10:12:51;5.80;99.90
18932;DHT22;9598;50.954;3.112;2023-12-07T10:17:56;5.90;99.90
18932;DHT22;9598;50.954;3.112;2023-12-07T10:23:03;5.90;99.90
18932;DHT22;9598;50.954;3.112;2023-12-07T10:28:07;6.00;99.90
18932;DHT22;9598;50.954;3.112;2023-12-07T10:33:12;6.00;99.90
18932;DHT22;9598;50.954;3.112;2023-12-07T10:38:14;6.10;99.90
18932;DHT22;9598;50.954;3.112;2023-12-07T10:43:19;6.10;99.90
18932;DHT22;9598;50.954;3.112;2023-12-07T10:48:24;6.20;99.90
18932;DHT22;9598;50.954;3.112;2023-12-07T10:53:27;6.10;99.90
18932;DHT22;9598;50.954;3.112;2023-12-07T10:58:35;6.10;99.90
18932;DHT22;9598;50.954;3.112;2023-12-07T11:03:43;6.20;99.90
18932;DHT22;9598;50.954;3.112;2023-12-07T11:08:49;6.20;99.90
18932;DHT22;9598;50.954;3.112;2023-12-07T11:13:58;6.30;99.90
18932;DHT22;9598;50.954;3.112;2023-12-07T11:19:02;6.30;99.90
18932;DHT22;9598;50.954;3.112;2023-12-07T11:24:06;6.30;99.90
18932;DHT22;9598;50.954;3.112;2023-12-07T11:29:08;6.40;99.90
18932;DHT22;9598;50.954;3.112;2023-12-07T11:34:11;6.50;99.90
18932;DHT22;9598;50.954;3.112;2023-12-07T11:39:17;6.50;99.90
18932;DHT22;9598;50.954;3.112;2023-12-07T11:44:33;6.60;99.90
18932;DHT22;9598;50.954;3.112;2023-12-07T11:49:37;6.60;99.90
18932;DHT22;9598;50.954;3.112;2023-12-07T11:54:39;6.60;99.90
18932;DHT22;9598;50.954;3.112;2023-12-07T11:59:41;6.70;99.90
18932;DHT22;9598;50.954;3.112;2023-12-07T12:04:45;6.70;99.90
18932;DHT22;9598;50.954;3.112;2023-12-07T12:09:47;6.70;99.90
18932;DHT22;9598;50.954;3.112;2023-12-07T12:14:50;6.80;99.90
18932;DHT22;9598;50.954;3.112;2023-12-07T12:19:54;6.80;99.90
18932;DHT22;9598;50.954;3.112;2023-12-07T12:24:56;6.80;99.90
18932;DHT22;9598;50.954;3.112;2023-12-07T12:30:01;6.90;99.90
18932;DHT22;9598;50.954;3.112;2023-12-07T12:35:06;6.90;99.90
18932;DHT22;9598;50.954;3.112;2023-12-07T12:40:09;7.00;99.90
18932;DHT22;9598;50.954;3.112;2023-12-07T12:45:11;7.00;99.90
18932;DHT22;9598;50.954;3.112;2023-12-07T12:50:33;7.00;99.90
18932;DHT22;9598;50.954;3.112;2023-12-07T12:55:37;7.00;99.90
18932;DHT22;9598;50.954;3.112;2023-12-07T13:00:40;7.00;99.90
18932;DHT22;9598;50.954;3.112;2023-12-07T13:05:45;7.00;99.90
18932;DHT22;9598;50.954;3.112;2023-12-07T13:10:48;7.00;99.90
18932;DHT22;9598;50.954;3.112;2023-12-07T13:15:50;7.10;99.90
18932;DHT22;9598;50.954;3.112;2023-12-07T13:20:54;7.10;99.90
18932;DHT22;9598;50.954;3.112;2023-12-07T13:25:56;7.10;99.90
18932;DHT22;9598;50.954;3.112;2023-12-07T13:30:58;7.10;99.90
18932;DHT22;9598;50.954;3.112;2023-12-07T13:36:02;7.10;99.90
18932;DHT22;9598;50.954;3.112;2023-12-07T13:41:05;7.10;99.90
18932;DHT22;9598;50.954;3.112;2023-12-07T13:46:07;7.20;99.90
18932;DHT22;9598;50.954;3.112;2023-12-07T13:51:12;7.10;99.90
18932;DHT22;9598;50.954;3.112;2023-12-07T13:56:14;7.10;99.90
18932;DHT22;9598;50.954;3.112;2023-12-07T14:01:16;7.10;99.90
18932;DHT22;9598;50.954;3.112;2023-12-07T14:06:23;7.10;99.90
18932;DHT22;9598;50.954;3.112;2023-12-07T14:11:25;7.10;99.90
18932;DHT22;9598;50.954;3.112;2023-12-07T14:16:27;7.10;99.90
18932;DHT22;9598;50.954;3.112;2023-12-07T14:21:31;7.00;99.90
18932;DHT22;9598;50.954;3.112;2023-12-07T14:26:33;7.00;99.90
18932;DHT22;9598;50.954;3.112;2023-12-07T14:31:35;7.00;99.90
18932;DHT22;9598;50.954;3.112;2023-12-07T14:36:39;7.00;99.90
18932;DHT22;9598;50.954;3.112;2023-12-07T14:41:43;6.90;99.90
18932;DHT22;9598;50.954;3.112;2023-12-07T14:46:47;6.90;99.90
18932;DHT22;9598;50.954;3.112;2023-12-07T14:51:53;6.90;99.90
18932;DHT22;9598;50.954;3.112;2023-12-07T14:56:56;6.90;99.90
18932;DHT22;9598;50.954;3.112;2023-12-07T15:01:58;6.90;99.90
18932;DHT22;9598;50.954;3.112;2023-12-07T15:07:03;6.90;99.90
18932;DHT22;9598;50.954;3.112;2023-12-07T15:12:06;6.80;99.90
18932;DHT22;9598;50.954;3.112;2023-12-07T15:17:08;6.80;99.90
18932;DHT22;9598;50.954;3.112;2023-12-07T15:22:12;6.80;99.90
18932;DHT22;9598;50.954;3.112;2023-12-07T15:27:15;6.80;99.90
18932;DHT22;9598;50.954;3.112;2023-12-07T15:32:17;6.80;99.90
18932;DHT22;9598;50.954;3.112;2023-12-07T15:37:20;6.80;99.90
18932;DHT22;9598;50.954;3.112;2023-12-07T15:42:22;6.80;99.90
18932;DHT22;9598;50.954;3.112;2023-12-07T15:47:24;6.90;99.90
18932;DHT22;9598;50.954;3.112;2023-12-07T15:52:28;6.80;99.90
18932;DHT22;9598;50.954;3.112;2023-12-07T15:57:30;6.80;99.90
18932;DHT22;9598;50.954;3.112;2023-12-07T16:02:32;6.80;99.90
18932;DHT22;9598;50.954;3.112;2023-12-07T16:07:37;6.80;99.90
18932;DHT22;9598;50.954;3.112;2023-12-07T16:12:40;6.80;99.90
18932;DHT22;9598;50.954;3.112;2023-12-07T16:17:42;6.80;99.90
18932;DHT22;9598;50.954;3.112;2023-12-07T16:22:45;6.80;99.90
18932;DHT22;9598;50.954;3.112;2023-12-07T16:27:47;6.80;99.90
18932;DHT22;9598;50.954;3.112;2023-12-07T16:32:49;6.80;99.90
18932;DHT22;9598;50.954;3.112;2023-12-07T16:37:53;6.70;99.90
18932;DHT22;9598;50.954;3.112;2023-12-07T16:42:55;6.60;99.90
18932;DHT22;9598;50.954;3.112;2023-12-07T16:47:58;6.70;99.90
18932;DHT22;9598;50.954;3.112;2023-12-07T16:53:02;6.70;99.90
18932;DHT22;9598;50.954;3.112;2023-12-07T16:58:05;6.70;99.90
18932;DHT22;9598;50.954;3.112;2023-12-07T17:03:07;6.70;99.90
18932;DHT22;9598;50.954;3.112;2023-12-07T17:08:10;6.70;99.90
18932;DHT22;9598;50.954;3.112;2023-12-07T17:13:13;6.70;99.90
18932;DHT22;9598;50.954;3.112;2023-12-07T17:18:17;6.60;99.90
18932;DHT22;9598;50.954;3.112;2023-12-07T17:23:21;6.60;99.90
18932;DHT22;9598;50.954;3.112;2023-12-07T17:28:23;6.60;99.90
18932;DHT22;9598;50.954;3.112;2023-12-07T17:33:25;6.60;99.90
18932;DHT22;9598;50.954;3.112;2023-12-07T17:38:29;6.60;99.90
18932;DHT22;9598;50.954;3.112;2023-12-07T17:43:31;6.60;99.90
18932;DHT22;9598;50.954;3.112;2023-12-07T17:48:35;6.60;99.90
18932;DHT22;9598;50.954;3.112;2023-12-07T17:53:39;6.60;99.90
18932;DHT22;9598;50.954;3.112;2023-12-07T17:58:41;6.60;99.90
18932;DHT22;9598;50.954;3.112;2023-12-07T18:03:43;6.60;99.90
18932;DHT22;9598;50.954;3.112;2023-12-07T18:08:47;6.60;99.90
18932;DHT22;9598;50.954;3.112;2023-12-07T18:13:49;6.70;99.90
18932;DHT22;9598;50.954;3.112;2023-12-07T18:18:51;6.70;99.90
18932;DHT22;9598;50.954;3.112;2023-12-07T18:23:55;6.70;99.90
18932;DHT22;9598;50.954;3.112;2023-12-07T18:28:57;6.70;99.90
18932;DHT22;9598;50.954;3.112;2023-12-07T18:33:59;6.70;99.90
18932;DHT22;9598;50.954;3.112;2023-12-07T18:39:02;6.70;99.90
18932;DHT22;9598;50.954;3.112;2023-12-07T18:44:05;6.70;99.90
18932;DHT22;9598;50.954;3.112;2023-12-07T18:49:07;6.70;99.90
18932;DHT22;9598;50.954;3.112;2023-12-07T18:54:11;6.70;99.90
18932;DHT22;9598;50.954;3.112;2023-12-07T18:59:13;6.70;99.90
18932;DHT22;9598;50.954;3.112;2023-12-07T19:04:16;6.70;99.90
18932;DHT22;9598;50.954;3.112;2023-12-07T19:09:19;6.70;99.90
18932;DHT22;9598;50.954;3.112;2023-12-07T19:14:22;6.70;99.90
18932;DHT22;9598;50.954;3.112;2023-12-07T19:19:24;6.70;99.90
18932;DHT22;9598;50.954;3.112;2023-12-07T19:24:28;6.60;99.90
18932;DHT22;9598;50.954;3.112;2023-12-07T19:29:31;6.60;99.90
18932;DHT22;9598;50.954;3.112;2023-12-07T19:34:34;6.60;99.90
18932;DHT22;9598;50.954;3.112;2023-12-07T19:39:37;6.60;99.90
18932;DHT22;9598;50.954;3.112;2023-12-07T19:44:39;6.60;99.90
18932;DHT22;9598;50.954;3.112;2023-12-07T19:49:41;6.70;99.90
18932;DHT22;9598;50.954;3.112;2023-12-07T19:54:45;6.70;99.90
18932;DHT22;9598;50.954;3.112;2023-12-07T19:59:47;6.70;99.90
18932;DHT22;9598;50.954;3.112;2023-12-07T20:04:49;6.70;99.90
18932;DHT22;9598;50.954;3.112;2023-12-07T20:09:52;6.70;99.90
18932;DHT22;9598;50.954;3.112;2023-12-07T20:14:55;6.70;99.90
18932;DHT22;9598;50.954;3.112;2023-12-07T20:19:57;6.70;99.90
18932;DHT22;9598;50.954;3.112;2023-12-07T20:25:00;6.70;99.90
18932;DHT22;9598;50.954;3.112;2023-12-07T20:30:05;6.80;99.90
18932;DHT22;9598;50.954;3.112;2023-12-07T20:35:08;6.80;99.90
18932;DHT22;9598;50.954;3.112;2023-12-07T20:40:12;6.80;99.90
18932;DHT22;9598;50.954;3.112;2023-12-07T20:45:14;6.80;99.90
18932;DHT22;9598;50.954;3.112;2023-12-07T20:50:16;6.80;99.90
18932;DHT22;9598;50.954;3.112;2023-12-07T20:55:21;6.80;99.90
18932;DHT22;9598;50.954;3.112;2023-12-07T21:00:23;6.80;99.90
18932;DHT22;9598;50.954;3.112;2023-12-07T21:05:25;6.80;99.90
18932;DHT22;9598;50.954;3.112;2023-12-07T21:10:30;6.80;99.90
18932;DHT22;9598;50.954;3.112;2023-12-07T21:15:32;6.80;99.90
18932;DHT22;9598;50.954;3.112;2023-12-07T21:20:35;6.90;99.90
18932;DHT22;9598;50.954;3.112;2023-12-07T21:25:38;6.80;99.90
18932;DHT22;9598;50.954;3.112;2023-12-07T21:30:40;6.90;99.90
18932;DHT22;9598;50.954;3.112;2023-12-07T21:35:43;6.90;99.90
18932;DHT22;9598;50.954;3.112;2023-12-07T21:40:46;6.90;99.90
18932;DHT22;9598;50.954;3.112;2023-12-07T21:45:48;6.80;99.90
18932;DHT22;9598;50.954;3.112;2023-12-07T21:50:50;6.80;99.90
18932;DHT22;9598;50.954;3.112;2023-12-07T21:55:57;6.80;99.90
18932;DHT22;9598;50.954;3.112;2023-12-07T22:00:59;6.70;99.90
18932;DHT22;9598;50.954;3.112;2023-12-07T22:06:02;6.80;99.90
18932;DHT22;9598;50.954;3.112;2023-12-07T22:11:08;6.70;99.90
18932;DHT22;9598;50.954;3.112;2023-12-07T22:16:11;6.70;99.90
18932;DHT22;9598;50.954;3.112;2023-12-07T22:21:13;6.70;99.90
18932;DHT22;9598;50.954;3.112;2023-12-07T22:26:16;6.70;99.90
18932;DHT22;9598;50.954;3.112;2023-12-07T22:31:18;6.60;99.90
18932;DHT22;9598;50.954;3.112;2023-12-07T22:36:21;6.50;99.90
18932;DHT22;9598;50.954;3.112;2023-12-07T22:41:26;6.30;99.90
18932;DHT22;9598;50.954;3.112;2023-12-07T22:46:29;6.20;99.90
18932;DHT22;9598;50.954;3.112;2023-12-07T22:51:31;6.20;99.90
18932;DHT22;9598;50.954;3.112;2023-12-07T22:56:34;6.20;99.90
18932;DHT22;9598;50.954;3.112;2023-12-07T23:01:36;6.30;99.90
18932;DHT22;9598;50.954;3.112;2023-12-07T23:06:38;6.10;99.90
18932;DHT22;9598;50.954;3.112;2023-12-07T23:11:43;6.20;99.90
18932;DHT22;9598;50.954;3.112;2023-12-07T23:16:45;6.10;99.90
18932;DHT22;9598;50.954;3.112;2023-12-07T23:21:49;6.10;99.90
18932;DHT22;9598;50.954;3.112;2023-12-07T23:26:56;6.00;99.90
18932;DHT22;9598;50.954;3.112;2023-12-07T23:31:58;6.00;99.90
18932;DHT22;9598;50.954;3.112;2023-12-07T23:37:00;6.00;99.90
18932;DHT22;9598;50.954;3.112;2023-12-07T23:42:04;6.00;99.90
18932;DHT22;9598;50.954;3.112;2023-12-07T23:47:06;6.00;99.90
18932;DHT22;9598;50.954;3.112;2023-12-07T23:52:10;6.10;99.90
18932;DHT22;9598;50.954;3.112;2023-12-07T23:57:13;6.10;99.90
